createdAt,value
2019-05-13T00:00:04.126Z,83.58
2019-05-13T00:01:07.154Z,83.58
2019-05-13T00:02:04.736Z,83.58
2019-05-13T00:03:04.083Z,83.58
2019-05-13T00:04:04.017Z,83.48
2019-05-13T00:05:04.101Z,83.29
2019-05-13T00:06:04.302Z,84.05
2019-05-13T00:07:04.739Z,83.86
2019-05-13T00:08:03.918Z,83.19
2019-05-13T00:09:03.919Z,83.29
2019-05-13T00:10:04.147Z,83.48
2019-05-13T00:11:04.443Z,83.86
2019-05-13T00:12:04.725Z,84.43
2019-05-13T00:13:04.655Z,84.14
2019-05-13T00:14:04.374Z,83.95
2019-05-13T00:15:03.866Z,84.14
2019-05-13T00:16:03.954Z,83.95
2019-05-13T00:17:04.268Z,83.95
2019-05-13T00:18:04.198Z,84.43
2019-05-13T00:19:04.147Z,85.10
2019-05-13T00:20:04.088Z,84.62
2019-05-13T00:21:03.846Z,84.81
2019-05-13T00:22:04.016Z,84.81
2019-05-13T00:23:04.127Z,85.00
2019-05-13T00:24:04.113Z,84.81
2019-05-13T00:25:04.007Z,84.91
2019-05-13T00:26:03.981Z,84.91
2019-05-13T00:27:04.087Z,85.19
2019-05-13T00:28:04.102Z,85.66
2019-05-13T00:29:04.152Z,85.47
2019-05-13T00:30:04.287Z,85.28
2019-05-13T00:31:03.516Z,85.28
2019-05-13T00:32:04.770Z,85.38
2019-05-13T00:33:03.787Z,85.38
2019-05-13T00:34:03.853Z,85.10
2019-05-13T00:35:03.955Z,85.95
2019-05-13T00:36:04.040Z,85.10
2019-05-13T00:37:11.230Z,86.00
2019-05-13T00:38:03.912Z,85.95
2019-05-13T00:39:03.925Z,86.00
2019-05-13T00:40:04.001Z,85.72
2019-05-13T00:41:03.706Z,85.76
2019-05-13T00:42:04.030Z,85.86
2019-05-13T00:43:03.924Z,85.81
2019-05-13T00:44:03.873Z,86.00
2019-05-13T00:45:04.067Z,85.91
2019-05-13T00:46:03.849Z,85.81
2019-05-13T00:47:04.493Z,85.81
2019-05-13T00:48:04.603Z,86.29
2019-05-13T00:49:04.810Z,86.57
2019-05-13T00:50:03.667Z,86.19
2019-05-13T00:51:03.842Z,86.19
2019-05-13T00:52:03.885Z,86.29
2019-05-13T00:53:04.438Z,86.57
2019-05-13T00:54:04.396Z,86.76
2019-05-13T00:55:04.283Z,86.67
2019-05-13T00:56:04.016Z,86.38
2019-05-13T00:57:04.199Z,86.47
2019-05-13T00:58:04.266Z,86.38
2019-05-13T00:59:03.695Z,86.76
2019-05-13T01:00:03.499Z,87.05
2019-05-13T01:01:03.624Z,86.95
2019-05-13T01:02:03.578Z,86.95
2019-05-13T01:03:04.159Z,87.05
2019-05-13T01:04:03.964Z,87.24
2019-05-13T01:05:04.331Z,87.34
2019-05-13T01:06:04.321Z,87.34
2019-05-13T01:07:04.384Z,87.62
2019-05-13T01:08:04.379Z,87.71
2019-05-13T01:09:04.116Z,87.81
2019-05-13T01:10:04.231Z,87.81
2019-05-13T01:11:04.231Z,87.81
2019-05-13T01:12:04.124Z,88.00
2019-05-13T01:13:04.582Z,87.62
2019-05-13T01:14:04.115Z,87.81
2019-05-13T01:15:04.026Z,88.47
2019-05-13T01:16:08.701Z,88.28
2019-05-13T01:17:03.910Z,88.47
2019-05-13T01:18:03.956Z,88.47
2019-05-13T01:19:04.044Z,88.38
2019-05-13T01:20:03.981Z,88.19
2019-05-13T01:21:04.178Z,88.09
2019-05-13T01:22:03.431Z,88.28
2019-05-13T01:23:03.682Z,88.47
2019-05-13T01:24:03.719Z,88.47
2019-05-13T01:25:03.915Z,88.67
2019-05-13T01:26:03.883Z,88.19
2019-05-13T01:27:03.805Z,88.38
2019-05-13T01:28:04.222Z,88.09
2019-05-13T01:29:03.977Z,88.19
2019-05-13T01:30:03.956Z,88.28
2019-05-13T01:31:03.961Z,88.67
2019-05-13T01:32:01.641Z,88.76
2019-05-13T01:33:01.509Z,88.67
2019-05-13T01:34:03.882Z,88.76
2019-05-13T01:35:01.451Z,88.67
2019-05-13T01:36:01.471Z,88.85
2019-05-13T01:37:01.403Z,89.38
2019-05-13T01:38:01.392Z,89.23
2019-05-13T01:39:01.342Z,89.47
2019-05-13T01:40:01.433Z,89.38
2019-05-13T01:41:01.292Z,89.38
2019-05-13T01:42:03.484Z,89.67
2019-05-13T01:43:03.381Z,89.57
2019-05-13T01:44:03.892Z,89.57
2019-05-13T01:45:01.200Z,89.47
2019-05-13T01:46:01.140Z,89.47
2019-05-13T01:47:01.143Z,89.38
2019-05-13T01:48:01.085Z,89.57
2019-05-13T01:49:01.152Z,89.57
2019-05-13T01:50:03.428Z,90.52
2019-05-13T01:51:03.560Z,90.52
2019-05-13T01:52:03.467Z,90.23
2019-05-13T01:53:00.984Z,90.42
2019-05-13T01:54:00.929Z,91.19
2019-05-13T01:55:00.992Z,90.99
2019-05-13T01:56:00.847Z,91.38
2019-05-13T01:57:00.901Z,91.38
2019-05-13T01:58:00.789Z,91.09
2019-05-13T01:59:00.810Z,92.13
2019-05-13T02:00:00.799Z,91.75
2019-05-13T02:01:00.724Z,91.75
2019-05-13T02:02:00.682Z,91.85
2019-05-13T02:03:00.740Z,92.04
2019-05-13T02:04:00.642Z,92.42
2019-05-13T02:05:00.649Z,92.13
2019-05-13T02:06:00.560Z,92.23
2019-05-13T02:07:00.540Z,92.42
2019-05-13T02:08:00.794Z,92.99
2019-05-13T02:09:00.573Z,92.61
2019-05-13T02:10:00.450Z,93.18
2019-05-13T02:11:00.503Z,93.18
2019-05-13T02:12:00.391Z,92.71
2019-05-13T02:13:00.398Z,93.27
2019-05-13T02:14:00.335Z,93.27
2019-05-13T02:15:00.411Z,92.80
2019-05-13T02:16:00.268Z,93.08
2019-05-13T02:17:00.317Z,93.18
2019-05-13T02:18:00.220Z,93.18
2019-05-13T02:19:00.239Z,93.27
2019-05-13T02:20:00.158Z,93.18
2019-05-13T02:21:00.156Z,93.23
2019-05-13T02:22:00.109Z,92.99
2019-05-13T02:23:00.087Z,93.13
2019-05-13T02:24:00.037Z,93.32
2019-05-13T02:25:00.078Z,93.23
2019-05-13T02:25:59.991Z,93.13
2019-05-13T02:26:59.988Z,93.23
2019-05-13T02:27:59.930Z,93.23
2019-05-13T02:28:59.998Z,93.23
2019-05-13T02:29:59.869Z,93.13
2019-05-13T02:30:59.908Z,92.85
2019-05-13T02:32:02.710Z,92.94
2019-05-13T02:33:02.940Z,93.80
2019-05-13T02:34:02.521Z,93.60
2019-05-13T02:35:02.714Z,93.70
2019-05-13T02:36:02.590Z,93.89
2019-05-13T02:37:02.844Z,94.74
2019-05-13T02:38:18.432Z,94.27
2019-05-13T02:39:02.210Z,94.27
2019-05-13T02:40:03.213Z,94.37
2019-05-13T02:41:02.595Z,95.22
2019-05-13T02:42:03.022Z,94.74
2019-05-13T02:43:02.706Z,95.41
2019-05-13T02:44:03.224Z,95.46
2019-05-13T02:45:03.407Z,95.27
2019-05-13T02:45:59.509Z,95.55
2019-05-13T02:47:02.957Z,95.46
2019-05-13T02:48:02.390Z,94.98
2019-05-13T02:48:59.318Z,95.65
2019-05-13T02:50:01.931Z,95.74
2019-05-13T02:50:59.261Z,96.03
2019-05-13T02:52:02.439Z,96.31
2019-05-13T02:53:02.105Z,96.03
2019-05-13T02:53:59.262Z,96.31
2019-05-13T02:54:59.156Z,96.41
2019-05-13T02:55:59.170Z,96.22
2019-05-13T02:56:59.092Z,96.69
2019-05-13T02:57:59.087Z,96.59
2019-05-13T02:58:59.029Z,96.69
2019-05-13T02:59:58.997Z,96.41
2019-05-13T03:00:58.982Z,96.31
2019-05-13T03:01:59.044Z,96.78
2019-05-13T03:02:58.908Z,96.59
2019-05-13T03:03:58.919Z,96.97
2019-05-13T03:04:58.979Z,96.97
2019-05-13T03:05:58.829Z,96.78
2019-05-13T03:06:58.837Z,96.78
2019-05-13T03:07:58.760Z,96.69
2019-05-13T03:08:58.861Z,96.78
2019-05-13T03:09:58.712Z,96.78
2019-05-13T03:10:58.771Z,96.83
2019-05-13T03:11:58.665Z,96.73
2019-05-13T03:12:58.677Z,96.92
2019-05-13T03:13:58.591Z,97.02
2019-05-13T03:14:58.724Z,96.92
2019-05-13T03:15:58.533Z,97.31
2019-05-13T03:16:58.613Z,97.31
2019-05-13T03:17:58.469Z,96.92
2019-05-13T03:18:58.507Z,96.92
2019-05-13T03:19:58.409Z,97.21
2019-05-13T03:20:58.379Z,97.31
2019-05-13T03:21:58.363Z,97.31
2019-05-13T03:22:58.439Z,97.40
2019-05-13T03:23:58.322Z,97.21
2019-05-13T03:24:58.360Z,97.12
2019-05-13T03:25:58.233Z,97.12
2019-05-13T03:26:58.258Z,97.21
2019-05-13T03:27:58.180Z,97.02
2019-05-13T03:28:58.179Z,97.59
2019-05-13T03:29:58.119Z,97.78
2019-05-13T03:30:58.190Z,97.02
2019-05-13T03:31:58.058Z,97.21
2019-05-13T03:33:02.287Z,97.69
2019-05-13T03:33:58.000Z,97.50
2019-05-13T03:34:58.009Z,97.59
2019-05-13T03:35:57.953Z,96.92
2019-05-13T03:36:58.246Z,97.02
2019-05-13T03:37:57.933Z,97.40
2019-05-13T03:39:05.532Z,97.21
2019-05-13T03:39:57.827Z,97.21
2019-05-13T03:40:57.862Z,97.40
2019-05-13T03:41:57.869Z,97.59
2019-05-13T03:42:57.730Z,97.78
2019-05-13T03:43:57.769Z,98.16
2019-05-13T03:44:57.679Z,97.88
2019-05-13T03:45:57.679Z,98.16
2019-05-13T03:46:57.616Z,98.25
2019-05-13T03:47:57.598Z,97.97
2019-05-13T03:48:57.598Z,98.25
2019-05-13T03:49:57.521Z,98.07
2019-05-13T03:50:57.508Z,97.97
2019-05-13T03:51:57.473Z,98.25
2019-05-13T03:52:57.430Z,98.16
2019-05-13T03:53:57.428Z,97.88
2019-05-13T03:54:57.380Z,98.25
2019-05-13T03:55:57.440Z,98.54
2019-05-13T03:56:57.319Z,98.73
2019-05-13T03:57:57.288Z,98.92
2019-05-13T03:58:57.258Z,99.30
2019-05-13T03:59:57.267Z,99.77
2019-05-13T04:00:57.210Z,99.68
2019-05-13T04:01:57.279Z,99.49
2019-05-13T04:02:57.146Z,99.58
2019-05-13T04:03:57.193Z,99.68
2019-05-13T04:04:59.298Z,99.68
2019-05-13T04:05:57.098Z,99.77
2019-05-13T04:06:57.039Z,99.77
2019-05-13T04:07:57.024Z,99.77
2019-05-13T04:09:17.317Z,99.68
2019-05-13T04:09:56.930Z,99.99
2019-05-13T04:10:56.937Z,99.99
2019-05-13T04:11:56.883Z,99.99
2019-05-13T04:12:56.860Z,99.99
2019-05-13T04:13:56.848Z,99.99
2019-05-13T04:14:56.780Z,99.99
2019-05-13T04:15:56.772Z,99.99
2019-05-13T04:16:56.730Z,99.99
2019-05-13T04:17:56.791Z,99.99
2019-05-13T04:18:56.663Z,99.99
2019-05-13T04:19:56.716Z,99.99
2019-05-13T04:20:56.602Z,99.99
2019-05-13T04:21:56.639Z,99.99
2019-05-13T04:22:56.538Z,99.99
2019-05-13T04:23:56.631Z,99.99
2019-05-13T04:24:56.478Z,99.99
2019-05-13T04:25:56.528Z,99.99
2019-05-13T04:26:56.418Z,99.99
2019-05-13T04:27:56.437Z,99.99
2019-05-13T04:28:56.376Z,99.99
2019-05-13T04:29:56.332Z,99.99
2019-05-13T04:30:56.300Z,99.99
2019-05-13T04:31:56.367Z,99.99
2019-05-13T04:32:56.242Z,99.99
2019-05-13T04:33:56.276Z,99.99
2019-05-13T04:34:56.178Z,99.99
2019-05-13T04:35:56.190Z,99.99
2019-05-13T04:36:56.118Z,99.99
2019-05-13T04:37:56.099Z,99.99
2019-05-13T04:38:56.058Z,99.99
2019-05-13T04:39:56.675Z,99.99
2019-05-13T04:40:56.004Z,99.99
2019-05-13T04:41:56.028Z,99.99
2019-05-13T04:42:55.941Z,99.99
2019-05-13T04:43:55.969Z,99.99
2019-05-13T04:44:55.882Z,99.99
2019-05-13T04:45:55.856Z,99.99
2019-05-13T04:46:55.870Z,99.99
2019-05-13T04:47:55.789Z,99.99
2019-05-13T04:48:55.873Z,99.99
2019-05-13T04:49:55.744Z,99.99
2019-05-13T04:50:55.702Z,99.99
2019-05-13T04:51:55.691Z,99.99
2019-05-13T04:52:55.696Z,99.99
2019-05-13T04:53:57.335Z,99.99
2019-05-13T04:54:55.608Z,99.99
2019-05-13T04:55:55.600Z,99.99
2019-05-13T04:56:55.619Z,99.99
2019-05-13T04:57:55.488Z,99.99
2019-05-13T04:58:55.538Z,99.99
2019-05-13T04:59:55.438Z,99.99
2019-05-13T05:01:02.343Z,99.99
2019-05-13T05:01:59.182Z,99.99
2019-05-13T05:02:55.658Z,99.99
2019-05-13T05:03:55.307Z,99.99
2019-05-13T05:04:55.373Z,99.99
2019-05-13T05:05:55.257Z,99.99
2019-05-13T05:06:55.228Z,99.99
2019-05-13T05:07:55.210Z,99.99
2019-05-13T05:08:55.205Z,99.99
2019-05-13T05:10:16.031Z,99.99
2019-05-13T05:10:55.208Z,99.99
2019-05-13T05:11:55.070Z,99.99
2019-05-13T05:12:55.117Z,99.99
2019-05-13T05:13:56.745Z,99.99
2019-05-13T05:14:55.039Z,99.99
2019-05-13T05:15:54.965Z,99.99
2019-05-13T05:16:54.954Z,99.99
2019-05-13T05:17:54.904Z,99.99
2019-05-13T05:18:54.957Z,99.99
2019-05-13T05:19:54.840Z,99.99
2019-05-13T05:20:54.887Z,99.99
2019-05-13T05:21:55.561Z,99.99
2019-05-13T05:22:54.751Z,99.99
2019-05-13T05:23:54.716Z,99.99
2019-05-13T05:24:54.797Z,99.99
2019-05-13T05:25:54.657Z,99.99
2019-05-13T05:26:54.725Z,99.99
2019-05-13T05:27:57.920Z,99.99
2019-05-13T05:28:54.568Z,99.99
2019-05-13T05:29:54.633Z,99.99
2019-05-13T05:30:54.517Z,99.99
2019-05-13T05:31:54.539Z,99.99
2019-05-13T05:32:54.450Z,99.99
2019-05-13T05:33:54.446Z,99.99
2019-05-13T05:34:54.389Z,99.99
2019-05-13T05:35:54.474Z,99.99
2019-05-13T05:36:54.336Z,99.99
2019-05-13T05:37:54.379Z,99.99
2019-05-13T05:38:54.279Z,99.99
2019-05-13T05:39:54.287Z,99.99
2019-05-13T05:40:54.228Z,99.99
2019-05-13T05:41:54.310Z,99.99
2019-05-13T05:42:54.157Z,99.99
2019-05-13T05:43:54.129Z,99.99
2019-05-13T05:44:54.098Z,99.99
2019-05-13T05:45:54.127Z,99.99
2019-05-13T05:46:54.041Z,99.99
2019-05-13T05:47:54.049Z,99.99
2019-05-13T05:48:54.048Z,99.99
2019-05-13T05:49:53.959Z,99.99
2019-05-13T05:50:53.968Z,99.99
2019-05-13T05:51:53.899Z,99.99
2019-05-13T05:52:53.967Z,99.99
2019-05-13T05:53:53.842Z,99.99
2019-05-13T05:54:53.808Z,99.99
2019-05-13T05:55:54.928Z,99.99
2019-05-13T05:56:53.749Z,99.99
2019-05-13T05:57:53.799Z,99.99
2019-05-13T05:58:53.687Z,99.99
2019-05-13T05:59:53.661Z,99.99
2019-05-13T06:00:53.718Z,99.99
2019-05-13T06:01:53.598Z,99.99
2019-05-13T06:02:53.631Z,99.99
2019-05-13T06:03:53.539Z,99.99
2019-05-13T06:04:53.520Z,99.99
2019-05-13T06:05:53.487Z,99.99
2019-05-13T06:06:53.556Z,99.99
2019-05-13T06:07:53.428Z,99.99
2019-05-13T06:08:53.469Z,99.99
2019-05-13T06:09:53.382Z,99.99
2019-05-13T06:10:53.909Z,99.99
2019-05-13T06:11:53.309Z,99.99
2019-05-13T06:12:53.401Z,99.99
2019-05-13T06:13:54.723Z,99.99
2019-05-13T06:14:53.309Z,99.99
2019-05-13T06:15:53.206Z,99.99
2019-05-13T06:16:53.171Z,99.99
2019-05-13T06:17:53.227Z,99.99
2019-05-13T06:18:53.129Z,99.99
2019-05-13T06:19:53.158Z,99.99
2019-05-13T06:20:53.149Z,99.99
2019-05-13T06:21:53.040Z,99.99
2019-05-13T06:22:53.067Z,99.99
2019-05-13T06:23:52.973Z,99.99
2019-05-13T06:24:52.968Z,99.99
2019-05-13T06:25:52.974Z,99.99
2019-05-13T06:26:53.012Z,99.07
2019-05-13T06:27:52.859Z,98.79
2019-05-13T06:28:52.898Z,98.69
2019-05-13T06:29:53.103Z,98.88
2019-05-13T06:30:52.811Z,98.60
2019-05-13T06:31:52.749Z,98.60
2019-05-13T06:32:52.818Z,98.79
2019-05-13T06:33:52.681Z,98.74
2019-05-13T06:34:52.758Z,98.08
2019-05-13T06:35:52.629Z,97.69
2019-05-13T06:36:52.601Z,97.79
2019-05-13T06:37:52.572Z,97.79
2019-05-13T06:38:52.657Z,97.60
2019-05-13T06:39:52.523Z,98.08
2019-05-13T06:41:03.363Z,97.50
2019-05-13T06:41:52.479Z,97.50
2019-05-13T06:42:52.427Z,97.41
2019-05-13T06:43:52.575Z,97.22
2019-05-13T06:44:52.372Z,96.98
2019-05-13T06:45:52.397Z,97.27
2019-05-13T06:46:52.330Z,96.03
2019-05-13T06:47:52.343Z,94.70
2019-05-13T06:48:52.263Z,94.74
2019-05-13T06:49:52.333Z,94.08
2019-05-13T06:50:52.290Z,94.60
2019-05-13T06:51:52.886Z,94.60
2019-05-13T06:52:52.187Z,94.22
2019-05-13T06:53:52.152Z,94.32
2019-05-13T06:54:52.226Z,94.79
2019-05-13T06:55:53.091Z,94.60
2019-05-13T06:56:52.028Z,94.98
2019-05-13T06:57:52.009Z,94.79
2019-05-13T06:58:52.200Z,94.70
2019-05-13T06:59:52.531Z,94.22
2019-05-13T07:00:52.023Z,94.32
2019-05-13T07:01:51.912Z,94.42
2019-05-13T07:02:51.973Z,94.22
2019-05-13T07:03:51.989Z,93.84
2019-05-13T07:04:51.933Z,94.42
2019-05-13T07:05:52.474Z,93.65
2019-05-13T07:07:07.686Z,93.55
2019-05-13T07:07:51.841Z,93.55
2019-05-13T07:08:52.250Z,92.79
2019-05-13T07:09:51.949Z,92.32
2019-05-13T07:10:51.732Z,92.55
2019-05-13T07:11:51.957Z,92.36
2019-05-13T07:12:52.035Z,91.79
2019-05-13T07:13:51.806Z,90.17
2019-05-13T07:14:51.974Z,89.70
2019-05-13T07:15:52.245Z,89.61
2019-05-13T07:16:52.426Z,90.17
2019-05-13T07:17:52.091Z,89.13
2019-05-13T07:18:52.370Z,89.32
2019-05-13T07:19:51.805Z,89.03
2019-05-13T07:20:53.007Z,88.37
2019-05-13T07:21:52.090Z,88.27
2019-05-13T07:22:53.177Z,88.08
2019-05-13T07:23:54.776Z,88.03
2019-05-13T07:24:51.938Z,87.27
2019-05-13T07:25:52.475Z,86.12
2019-05-13T07:26:52.328Z,85.64
2019-05-13T07:27:51.572Z,85.74
2019-05-13T07:28:52.405Z,85.46
2019-05-13T07:29:53.611Z,85.55
2019-05-13T07:30:51.740Z,85.46
2019-05-13T07:31:52.219Z,85.55
2019-05-13T07:32:52.390Z,85.64
2019-05-13T07:33:51.731Z,85.64
2019-05-13T07:34:53.145Z,85.17
2019-05-13T07:35:57.314Z,85.08
2019-05-13T07:36:51.362Z,84.12
2019-05-13T07:37:51.740Z,84.69
2019-05-13T07:38:52.043Z,84.41
2019-05-13T07:39:53.003Z,83.74
2019-05-13T07:40:52.168Z,82.31
2019-05-13T07:41:52.033Z,82.03
2019-05-13T07:42:52.278Z,81.93
2019-05-13T07:43:51.744Z,81.26
2019-05-13T07:44:52.184Z,80.60
2019-05-13T07:45:51.374Z,80.41
2019-05-13T07:46:52.431Z,80.98
2019-05-13T07:47:52.038Z,81.55
2019-05-13T07:48:52.095Z,81.17
2019-05-13T07:49:51.557Z,80.12
2019-05-13T07:50:59.589Z,79.40
2019-05-13T07:51:52.093Z,79.68
2019-05-13T07:52:51.496Z,79.59
2019-05-13T07:53:51.782Z,79.17
2019-05-13T07:54:52.075Z,78.31
2019-05-13T07:55:52.501Z,76.92
2019-05-13T07:56:52.327Z,77.07
2019-05-13T07:57:51.487Z,77.78
2019-05-13T07:58:52.364Z,77.07
2019-05-13T07:59:52.425Z,77.26
2019-05-13T08:00:51.965Z,77.45
2019-05-13T08:01:52.175Z,77.07
2019-05-13T08:02:52.281Z,77.45
2019-05-13T08:03:51.574Z,77.97
2019-05-13T08:04:52.874Z,78.54
2019-05-13T08:05:51.310Z,78.35
2019-05-13T08:06:52.404Z,78.35
2019-05-13T08:07:51.534Z,79.11
2019-05-13T08:08:52.281Z,79.59
2019-05-13T08:09:51.825Z,79.21
2019-05-13T08:10:51.956Z,78.06
2019-05-13T08:12:04.392Z,78.25
2019-05-13T08:12:51.670Z,78.06
2019-05-13T08:13:51.745Z,77.30
2019-05-13T08:14:52.186Z,76.96
2019-05-13T08:15:54.399Z,76.54
2019-05-13T08:16:51.802Z,77.11
2019-05-13T08:17:52.516Z,77.25
2019-05-13T08:18:52.147Z,76.96
2019-05-13T08:19:52.057Z,77.06
2019-05-13T08:20:52.276Z,77.06
2019-05-13T08:21:51.394Z,77.34
2019-05-13T08:22:51.966Z,77.25
2019-05-13T08:23:52.231Z,74.19
2019-05-13T08:24:52.038Z,73.33
2019-05-13T08:25:51.476Z,73.33
2019-05-13T08:26:50.710Z,74.29
2019-05-13T08:27:51.477Z,75.34
2019-05-13T08:29:00.085Z,76.20
2019-05-13T08:29:51.982Z,77.06
2019-05-13T08:30:51.664Z,77.15
2019-05-13T08:31:51.669Z,77.15
2019-05-13T08:32:49.448Z,77.06
2019-05-13T08:33:51.780Z,76.23
2019-05-13T08:34:54.314Z,76.14
2019-05-13T08:35:54.009Z,76.42
2019-05-13T08:36:51.429Z,76.04
2019-05-13T08:37:51.848Z,76.90
2019-05-13T08:38:51.914Z,75.76
2019-05-13T08:39:52.009Z,74.42
2019-05-13T08:40:51.199Z,74.04
2019-05-13T08:41:51.395Z,74.42
2019-05-13T08:42:49.191Z,74.46
2019-05-13T08:43:49.247Z,74.55
2019-05-13T08:44:52.024Z,75.13
2019-05-13T08:45:51.702Z,75.98
2019-05-13T08:46:49.088Z,76.12
2019-05-13T08:47:51.211Z,75.54
2019-05-13T08:48:51.604Z,74.11
2019-05-13T08:49:49.078Z,72.49
2019-05-13T08:50:48.979Z,72.01
2019-05-13T08:51:48.999Z,71.06
2019-05-13T08:52:51.107Z,71.25
2019-05-13T08:53:48.909Z,71.15
2019-05-13T08:54:48.911Z,68.00
2019-05-13T08:55:51.567Z,68.51
2019-05-13T08:56:48.927Z,68.23
2019-05-13T08:57:51.181Z,67.36
2019-05-13T08:58:48.789Z,69.09
2019-05-13T08:59:51.298Z,66.13
2019-05-13T09:00:48.767Z,64.43
2019-05-13T09:01:48.709Z,64.15
2019-05-13T09:02:48.779Z,64.91
2019-05-13T09:03:48.673Z,65.30
2019-05-13T09:04:48.679Z,70.30
2019-05-13T09:05:48.611Z,65.61
2019-05-13T09:06:48.694Z,63.60
2019-05-13T09:07:48.549Z,62.68
2019-05-13T09:08:48.601Z,63.76
2019-05-13T09:09:48.501Z,64.34
2019-05-13T09:10:48.519Z,62.46
2019-05-13T09:11:48.456Z,61.21
2019-05-13T09:12:48.529Z,59.84
2019-05-13T09:13:48.398Z,58.50
2019-05-13T09:14:48.370Z,59.33
2019-05-13T09:15:48.449Z,62.20
2019-05-13T09:16:48.331Z,62.52
2019-05-13T09:17:48.369Z,61.21
2019-05-13T09:18:48.279Z,61.21
2019-05-13T09:19:48.261Z,60.06
2019-05-13T09:20:48.238Z,58.15
2019-05-13T09:21:48.292Z,56.71
2019-05-13T09:22:48.179Z,57.28
2019-05-13T09:23:48.197Z,59.58
2019-05-13T09:24:48.129Z,58.37
2019-05-13T09:25:48.209Z,55.97
2019-05-13T09:26:48.072Z,59.64
2019-05-13T09:27:48.129Z,58.39
2019-05-13T09:28:48.038Z,55.04
2019-05-13T09:29:48.039Z,55.80
2019-05-13T09:30:47.989Z,54.08
2019-05-13T09:31:48.061Z,54.56
2019-05-13T09:32:47.949Z,54.37
2019-05-13T09:33:47.963Z,57.53
2019-05-13T09:34:47.901Z,58.52
2019-05-13T09:35:50.135Z,55.77
2019-05-13T09:36:47.853Z,53.08
2019-05-13T09:37:47.892Z,51.83
2019-05-13T09:38:47.798Z,52.02
2019-05-13T09:39:47.798Z,51.54
2019-05-13T09:40:47.747Z,52.79
2019-05-13T09:41:47.818Z,53.17
2019-05-13T09:42:51.866Z,51.83
2019-05-13T09:43:47.729Z,51.86
2019-05-13T09:44:47.658Z,51.76
2019-05-13T09:45:47.738Z,52.26
2019-05-13T09:46:47.618Z,50.63
2019-05-13T09:47:47.647Z,50.44
2019-05-13T09:48:47.557Z,51.31
2019-05-13T09:49:47.568Z,51.23
2019-05-13T09:50:47.509Z,51.02
2019-05-13T09:51:47.496Z,51.43
2019-05-13T09:52:47.500Z,51.33
2019-05-13T09:53:47.490Z,50.40
2019-05-13T09:54:47.442Z,49.43
2019-05-13T09:55:47.535Z,48.88
2019-05-13T09:56:47.412Z,47.22
2019-05-13T09:57:47.371Z,43.93
2019-05-13T09:58:47.420Z,43.52
2019-05-13T09:59:47.309Z,44.75
2019-05-13T10:00:47.509Z,45.50
2019-05-13T10:01:47.261Z,47.03
2019-05-13T10:02:47.348Z,47.41
2019-05-13T10:03:54.786Z,47.51
2019-05-13T10:04:47.199Z,44.82
2019-05-13T10:05:47.270Z,43.46
2019-05-13T10:06:47.148Z,44.80
2019-05-13T10:07:47.130Z,47.68
2019-05-13T10:08:47.209Z,47.80
2019-05-13T10:09:48.343Z,49.05
2019-05-13T10:10:47.101Z,48.88
2019-05-13T10:11:47.039Z,46.48
2019-05-13T10:13:07.064Z,47.27
2019-05-13T10:13:46.988Z,48.25
2019-05-13T10:14:47.029Z,50.37
2019-05-13T10:15:48.864Z,48.76
2019-05-13T10:16:47.039Z,47.13
2019-05-13T10:17:46.910Z,47.13
2019-05-13T10:18:46.948Z,46.62
2019-05-13T10:19:46.857Z,47.10
2019-05-13T10:20:46.864Z,46.74
2019-05-13T10:21:46.817Z,48.30
2019-05-13T10:22:46.881Z,46.57
2019-05-13T10:23:46.767Z,45.44
2019-05-13T10:24:46.787Z,46.21
2019-05-13T10:25:46.728Z,46.88
2019-05-13T10:26:46.798Z,46.50
2019-05-13T10:27:46.691Z,47.67
2019-05-13T10:28:46.663Z,45.27
2019-05-13T10:29:46.647Z,45.94
2019-05-13T10:30:46.766Z,45.46
2019-05-13T10:31:46.598Z,47.10
2019-05-13T10:32:46.649Z,45.84
2019-05-13T10:33:46.649Z,46.25
2019-05-13T10:34:46.535Z,46.06
2019-05-13T10:35:46.559Z,44.98
2019-05-13T10:36:46.488Z,43.75
2019-05-13T10:37:46.582Z,42.09
2019-05-13T10:38:46.450Z,44.59
2019-05-13T10:39:46.437Z,42.19
2019-05-13T10:40:46.491Z,44.31
2019-05-13T10:41:46.387Z,44.31
2019-05-13T10:42:46.419Z,45.00
2019-05-13T10:43:46.359Z,46.15
2019-05-13T10:44:46.328Z,44.81
2019-05-13T10:45:46.319Z,45.97
2019-05-13T10:46:46.278Z,43.46
2019-05-13T10:47:47.359Z,45.29
2019-05-13T10:48:46.238Z,42.79
2019-05-13T10:49:46.230Z,44.90
2019-05-13T10:50:46.257Z,42.79
2019-05-13T10:51:46.189Z,44.25
2019-05-13T10:52:46.274Z,42.23
2019-05-13T10:53:46.141Z,47.65
2019-05-13T10:54:46.121Z,44.18
2019-05-13T10:55:46.103Z,42.83
2019-05-13T10:56:46.088Z,40.49
2019-05-13T10:57:46.060Z,42.88
2019-05-13T10:58:47.128Z,42.76
2019-05-13T10:59:46.022Z,42.47
2019-05-13T11:00:46.003Z,44.79
2019-05-13T11:01:46.051Z,45.56
2019-05-13T11:02:45.968Z,44.69
2019-05-13T11:03:46.052Z,45.36
2019-05-13T11:04:45.930Z,45.27
2019-05-13T11:05:45.909Z,44.31
2019-05-13T11:06:45.885Z,44.23
2019-05-13T11:07:45.975Z,41.82
2019-05-13T11:08:45.827Z,41.63
2019-05-13T11:09:45.890Z,42.13
2019-05-13T11:10:45.913Z,42.90
2019-05-13T11:11:45.769Z,43.10
2019-05-13T11:12:45.808Z,43.41
2019-05-13T11:13:55.155Z,39.53
2019-05-13T11:14:46.664Z,38.54
2019-05-13T11:15:45.981Z,41.27
2019-05-13T11:16:45.717Z,41.07
2019-05-13T11:17:45.650Z,41.77
2019-05-13T11:18:45.742Z,42.25
2019-05-13T11:19:45.610Z,44.39
2019-05-13T11:20:45.655Z,43.04
2019-05-13T11:21:50.476Z,41.23
2019-05-13T11:22:45.560Z,38.02
2019-05-13T11:23:45.569Z,37.91
2019-05-13T11:24:45.518Z,40.42
2019-05-13T11:25:45.582Z,41.28
2019-05-13T11:26:45.493Z,41.67
2019-05-13T11:27:45.460Z,40.15
2019-05-13T11:28:45.500Z,38.87
2019-05-13T11:29:45.417Z,38.68
2019-05-13T11:30:45.413Z,39.74
2019-05-13T11:31:45.379Z,41.57
2019-05-13T11:32:45.430Z,40.90
2019-05-13T11:33:45.339Z,38.39
2019-05-13T11:34:45.353Z,37.89
2019-05-13T11:35:45.312Z,38.28
2019-05-13T11:36:45.351Z,40.30
2019-05-13T11:37:45.358Z,41.17
2019-05-13T11:38:45.239Z,40.61
2019-05-13T11:39:45.268Z,38.46
2019-05-13T11:40:45.209Z,37.96
2019-05-13T11:41:45.288Z,39.70
2019-05-13T11:42:45.189Z,41.07
2019-05-13T11:43:45.150Z,40.49
2019-05-13T11:44:45.212Z,39.34
2019-05-13T11:45:45.112Z,40.61
2019-05-13T11:46:45.129Z,40.49
2019-05-13T11:47:45.070Z,40.80
2019-05-13T11:48:45.132Z,39.26
2019-05-13T11:49:45.040Z,40.70
2019-05-13T11:50:50.114Z,40.44
2019-05-13T11:51:45.002Z,39.47
2019-05-13T11:52:45.066Z,38.51
2019-05-13T11:53:44.962Z,36.85
2019-05-13T11:54:44.971Z,34.61
2019-05-13T11:55:44.919Z,36.25
2019-05-13T11:56:49.778Z,36.43
2019-05-13T11:57:44.890Z,34.30
2019-05-13T11:58:44.859Z,37.48
2019-05-13T11:59:44.857Z,36.43
2019-05-13T12:00:44.909Z,34.50
2019-05-13T12:01:44.807Z,39.53
2019-05-13T12:02:51.031Z,41.07
2019-05-13T12:03:44.851Z,42.25
2019-05-13T12:04:44.750Z,39.47
2019-05-13T12:05:44.871Z,35.59
2019-05-13T12:07:44.751Z,37.83
2019-05-13T12:08:51.053Z,36.55
2019-05-13T12:09:44.656Z,36.17
2019-05-13T12:10:44.670Z,34.80
2019-05-13T12:11:44.619Z,34.59
2019-05-13T12:12:44.689Z,34.88
2019-05-13T12:13:44.587Z,35.44
2019-05-13T12:15:48.898Z,37.37
2019-05-13T12:16:44.528Z,37.87
2019-05-13T12:17:44.519Z,39.61
2019-05-13T12:18:44.529Z,41.17
2019-05-13T12:19:44.538Z,39.36
2019-05-13T12:20:44.457Z,36.65
2019-05-13T12:21:46.682Z,35.30
2019-05-13T12:22:44.418Z,37.81
2019-05-13T12:23:44.458Z,35.13
2019-05-13T12:24:44.391Z,33.07
2019-05-13T12:25:44.403Z,34.52
2019-05-13T12:26:44.340Z,33.33
2019-05-13T12:27:44.388Z,34.77
2019-05-13T12:28:44.296Z,38.43
2019-05-13T12:29:44.297Z,37.48
2019-05-13T12:30:44.258Z,39.31
2019-05-13T12:31:44.305Z,39.82
2019-05-13T12:32:44.227Z,39.91
2019-05-13T12:33:44.262Z,39.74
2019-05-13T12:34:45.734Z,39.47
2019-05-13T12:35:44.169Z,38.60
2019-05-13T12:36:44.261Z,37.06
2019-05-13T12:37:44.131Z,36.67
2019-05-13T12:38:44.545Z,37.93
2019-05-13T12:39:44.270Z,35.14
2019-05-13T12:40:44.079Z,35.14
2019-05-13T12:41:44.106Z,35.24
2019-05-13T12:42:47.114Z,35.84
2019-05-13T12:43:44.018Z,33.91
2019-05-13T12:45:00.480Z,33.62
2019-05-13T12:45:43.984Z,33.62
2019-05-13T12:47:44.018Z,32.73
2019-05-13T12:48:43.927Z,33.50
2019-05-13T12:49:44.272Z,34.76
2019-05-13T12:50:43.898Z,32.23
2019-05-13T12:51:44.224Z,33.39
2019-05-13T12:52:44.100Z,36.19
2019-05-13T12:53:43.848Z,37.35
2019-05-13T12:54:44.771Z,35.42